createdAt,value
2022-12-01T00:00:20.295Z,82.26
2022-12-01T00:03:23.100Z,82.09
2022-12-01T00:06:25.556Z,82.40
2022-12-01T00:09:46.393Z,82.48
2022-12-01T00:12:48.979Z,82.61
2022-12-01T00:15:51.379Z,82.44
2022-12-01T00:18:53.847Z,82.44
2022-12-01T00:21:56.400Z,82.10
2022-12-01T00:24:58.805Z,81.73
2022-12-01T00:28:01.202Z,81.40
2022-12-01T00:31:08.149Z,81.13
2022-12-01T00:34:24.952Z,80.86
2022-12-01T00:37:29.828Z,80.75
2022-12-01T00:40:32.304Z,80.53
2022-12-01T00:43:34.955Z,81.10
2022-12-01T00:46:37.471Z,81.06
2022-12-01T00:49:40.195Z,81.05
2022-12-01T00:52:42.697Z,81.86
2022-12-01T00:55:45.205Z,81.43
2022-12-01T00:58:47.936Z,81.23
2022-12-01T01:01:50.442Z,81.01
2022-12-01T01:04:53.586Z,81.17
2022-12-01T01:07:56.009Z,81.05
2022-12-01T01:11:00.187Z,81.10
2022-12-01T01:14:03.045Z,80.52
2022-12-01T01:17:05.898Z,80.61
2022-12-01T01:20:09.124Z,80.79
2022-12-01T01:23:11.595Z,80.89
2022-12-01T01:26:17.153Z,81.29
2022-12-01T01:29:20.091Z,81.67
2022-12-01T01:32:22.474Z,81.43
2022-12-01T01:35:24.924Z,81.08
2022-12-01T01:38:28.477Z,81.03
2022-12-01T01:41:30.953Z,81.24
2022-12-01T01:44:56.310Z,80.57
2022-12-01T01:47:59.902Z,80.41
2022-12-01T01:51:02.584Z,80.26
2022-12-01T01:54:08.646Z,79.42
2022-12-01T01:57:12.472Z,79.38
2022-12-01T02:00:18.193Z,79.40
2022-12-01T02:03:20.919Z,79.28
2022-12-01T02:06:24.636Z,79.32
2022-12-01T02:09:27.672Z,79.17
2022-12-01T02:13:15.996Z,79.37
2022-12-01T02:16:35.935Z,79.40
2022-12-01T02:20:02.649Z,80.22
2022-12-01T02:23:26.589Z,80.58
2022-12-01T02:26:39.764Z,80.25
2022-12-01T02:30:00.671Z,79.71
2022-12-01T02:33:24.225Z,79.14
2022-12-01T02:36:37.459Z,79.42
2022-12-01T02:40:02.063Z,79.85
2022-12-01T02:43:08.080Z,80.12
2022-12-01T02:46:32.549Z,79.77
2022-12-01T02:49:37.497Z,79.99
2022-12-01T02:52:40.588Z,79.65
2022-12-01T02:55:52.021Z,79.29
2022-12-01T02:58:54.579Z,79.53
2022-12-01T03:02:00.210Z,78.81
2022-12-01T03:05:05.637Z,78.79
2022-12-01T03:08:19.587Z,80.04
2022-12-01T03:11:28.924Z,80.65
2022-12-01T03:14:51.085Z,80.60
2022-12-01T03:17:59.374Z,81.36
2022-12-01T03:21:09.761Z,81.42
2022-12-01T03:24:17.581Z,82.72
2022-12-01T03:27:23.091Z,83.63
2022-12-01T03:30:26.199Z,84.67
2022-12-01T03:33:35.953Z,84.02
2022-12-01T03:36:48.406Z,83.19
2022-12-01T03:39:55.868Z,84.12
2022-12-01T03:43:03.951Z,84.60
2022-12-01T03:46:41.168Z,84.64
2022-12-01T03:49:45.272Z,83.64
2022-12-01T03:52:58.583Z,84.38
2022-12-01T03:56:03.555Z,85.17
2022-12-01T03:59:07.558Z,85.08
2022-12-01T04:02:10.125Z,84.99
2022-12-01T04:05:12.875Z,85.80
2022-12-01T04:08:15.290Z,85.92
2022-12-01T04:11:36.136Z,85.27
2022-12-01T04:14:38.626Z,83.56
2022-12-01T04:17:45.115Z,83.42
2022-12-01T04:20:50.651Z,83.42
2022-12-01T04:24:02.074Z,82.98
2022-12-01T04:27:04.497Z,83.48
2022-12-01T04:30:08.041Z,82.49
2022-12-01T04:33:10.425Z,82.82
2022-12-01T04:36:12.808Z,82.84
2022-12-01T04:39:15.294Z,83.23
2022-12-01T04:42:17.720Z,83.90
2022-12-01T04:45:20.127Z,82.69
2022-12-01T04:48:22.574Z,81.76
2022-12-01T04:51:25.002Z,81.39
2022-12-01T04:54:27.541Z,81.58
2022-12-01T04:57:29.960Z,81.50
2022-12-01T05:00:33.511Z,82.37
2022-12-01T05:03:38.218Z,82.17
2022-12-01T05:06:41.187Z,82.06
2022-12-01T05:09:43.699Z,81.79
2022-12-01T05:12:46.405Z,80.71
2022-12-01T05:15:49.046Z,80.53
2022-12-01T05:19:16.557Z,79.75
2022-12-01T05:22:31.486Z,80.10
2022-12-01T05:25:42.502Z,80.35
2022-12-01T05:28:44.937Z,80.41
2022-12-01T05:31:47.541Z,80.44
2022-12-01T05:34:50.123Z,80.64
2022-12-01T05:37:52.594Z,80.77
2022-12-01T05:40:56.046Z,81.71
2022-12-01T05:43:58.525Z,82.27
2022-12-01T05:47:00.982Z,82.69
2022-12-01T05:50:05.903Z,82.84
2022-12-01T05:53:11.299Z,82.70
2022-12-01T05:56:13.793Z,83.17
2022-12-01T05:59:16.274Z,83.92
2022-12-01T06:02:18.933Z,84.04
2022-12-01T06:05:21.444Z,83.97
2022-12-01T06:08:24.025Z,84.60
2022-12-01T06:11:26.471Z,84.77
2022-12-01T06:14:28.951Z,84.41
2022-12-01T06:17:34.584Z,84.93
2022-12-01T06:20:39.426Z,84.49
2022-12-01T06:23:41.918Z,84.84
2022-12-01T06:26:44.271Z,85.32
2022-12-01T06:29:46.711Z,85.59
2022-12-01T06:32:49.184Z,84.91
2022-12-01T06:35:59.184Z,84.64
2022-12-01T06:39:01.575Z,83.82
2022-12-01T06:42:04.052Z,85.21
2022-12-01T06:45:06.898Z,85.11
2022-12-01T06:48:09.523Z,84.55
2022-12-01T06:51:11.942Z,84.12
2022-12-01T06:54:15.249Z,83.52
2022-12-01T06:57:17.633Z,83.62
2022-12-01T07:00:20.601Z,83.75
2022-12-01T07:03:23.145Z,83.47
2022-12-01T07:06:25.704Z,83.15
2022-12-01T07:09:28.136Z,83.22
2022-12-01T07:12:31.828Z,82.81
2022-12-01T07:15:34.227Z,82.48
2022-12-01T07:18:37.418Z,82.76
2022-12-01T07:21:46.467Z,82.31
2022-12-01T07:24:48.900Z,81.76
2022-12-01T07:27:51.384Z,81.82
2022-12-01T07:30:53.775Z,82.04
2022-12-01T07:33:57.501Z,81.25
2022-12-01T07:36:59.905Z,81.76
2022-12-01T07:40:02.456Z,81.87
2022-12-01T07:43:05.114Z,81.30
2022-12-01T07:46:22.813Z,79.90
2022-12-01T07:49:26.349Z,80.09
2022-12-01T07:52:28.910Z,79.92
2022-12-01T07:55:31.312Z,79.47
2022-12-01T07:58:34.096Z,78.86
2022-12-01T08:01:39.257Z,78.51
2022-12-01T08:04:45.458Z,77.34
2022-12-01T08:07:48.037Z,76.64
2022-12-01T08:10:50.755Z,74.93
2022-12-01T08:13:53.508Z,74.18
2022-12-01T08:16:55.916Z,74.17
2022-12-01T08:19:58.717Z,74.72
2022-12-01T08:23:01.795Z,72.97
2022-12-01T08:26:06.667Z,73.01
2022-12-01T08:29:09.324Z,72.90
2022-12-01T08:32:11.916Z,73.44
2022-12-01T08:35:15.385Z,73.46
2022-12-01T08:38:18.164Z,73.65
2022-12-01T08:41:21.652Z,73.66
2022-12-01T08:44:24.088Z,71.29
2022-12-01T08:47:28.902Z,72.13
2022-12-01T08:50:31.583Z,71.45
2022-12-01T08:53:35.511Z,70.58
2022-12-01T08:56:43.317Z,70.58
2022-12-01T08:59:45.832Z,70.87
2022-12-01T09:02:49.471Z,70.93
2022-12-01T09:05:51.960Z,70.40
2022-12-01T09:08:54.363Z,70.00
2022-12-01T09:11:57.261Z,70.39
2022-12-01T09:15:02.193Z,70.05
2022-12-01T09:18:04.936Z,68.81
2022-12-01T09:21:24.028Z,68.67
2022-12-01T09:24:27.384Z,69.18
2022-12-01T09:27:29.800Z,68.87
2022-12-01T09:30:32.283Z,69.10
2022-12-01T09:33:35.000Z,67.69
2022-12-01T09:36:38.155Z,67.23
2022-12-01T09:39:40.601Z,65.80
2022-12-01T09:42:44.611Z,64.89
2022-12-01T09:45:50.625Z,64.86
2022-12-01T09:48:54.341Z,64.49
2022-12-01T09:51:56.745Z,66.48
2022-12-01T09:55:00.408Z,65.34
2022-12-01T09:58:04.496Z,65.11
2022-12-01T10:01:15.692Z,65.84
2022-12-01T10:04:31.095Z,64.99
2022-12-01T10:07:40.319Z,62.94
2022-12-01T10:10:46.432Z,65.08
2022-12-01T10:13:48.908Z,65.47
2022-12-01T10:17:03.971Z,64.03
2022-12-01T10:20:13.357Z,63.90
2022-12-01T10:23:43.844Z,64.42
2022-12-01T10:26:52.328Z,63.34
2022-12-01T10:29:58.907Z,64.34
2022-12-01T10:33:24.274Z,64.57
2022-12-01T10:36:27.668Z,64.53
2022-12-01T10:39:40.250Z,66.12
2022-12-01T10:42:48.316Z,67.79
2022-12-01T10:45:51.111Z,68.35
2022-12-01T10:48:58.918Z,66.26
2022-12-01T10:52:01.891Z,66.24
2022-12-01T10:55:26.493Z,64.97
2022-12-01T10:58:31.924Z,63.50
2022-12-01T11:01:35.933Z,63.25
2022-12-01T11:04:56.236Z,62.21
2022-12-01T11:07:59.122Z,61.12
2022-12-01T11:11:01.840Z,62.43
2022-12-01T11:14:17.980Z,63.42
2022-12-01T11:17:26.282Z,65.01
2022-12-01T11:20:39.688Z,63.87
2022-12-01T11:23:50.665Z,62.98
2022-12-01T11:26:53.370Z,62.80
2022-12-01T11:29:58.292Z,61.88
2022-12-01T11:33:02.991Z,62.01
2022-12-01T11:36:11.838Z,60.93
2022-12-01T11:39:44.443Z,61.57
2022-12-01T11:42:55.814Z,61.34
2022-12-01T11:46:00.772Z,61.84
2022-12-01T11:49:04.055Z,62.15
2022-12-01T11:52:28.099Z,62.05
2022-12-01T11:55:31.696Z,62.83
2022-12-01T11:58:34.149Z,63.75
2022-12-01T12:01:49.458Z,63.53
2022-12-01T12:05:03.343Z,64.11
2022-12-01T12:08:18.102Z,64.44
2022-12-01T12:11:49.674Z,64.55
2022-12-01T12:15:29.835Z,65.57
2022-12-01T12:19:07.905Z,65.61
2022-12-01T12:22:19.335Z,65.83
2022-12-01T12:25:30.957Z,65.88
2022-12-01T12:29:13.950Z,64.56
2022-12-01T12:32:28.502Z,64.83
2022-12-01T12:36:02.414Z,64.33
2022-12-01T12:39:24.493Z,63.39
2022-12-01T12:42:53.055Z,62.66
2022-12-01T12:46:07.809Z,61.27
2022-12-01T12:49:20.709Z,59.15
2022-12-01T12:52:26.857Z,58.47
2022-12-01T12:56:05.516Z,58.18
2022-12-01T12:59:12.057Z,59.98
2022-12-01T13:02:20.653Z,59.47
2022-12-01T13:05:36.266Z,58.96
2022-12-01T13:08:44.371Z,58.93
2022-12-01T13:12:22.217Z,59.05
2022-12-01T13:15:25.195Z,59.57
2022-12-01T13:18:44.023Z,58.95
2022-12-01T13:21:48.893Z,58.55
2022-12-01T13:24:52.312Z,59.22
2022-12-01T13:27:55.591Z,61.16
2022-12-01T13:31:00.352Z,63.74
2022-12-01T13:34:05.421Z,64.18
2022-12-01T13:37:09.227Z,64.31
2022-12-01T13:40:25.199Z,63.13
2022-12-01T13:43:27.619Z,61.02
2022-12-01T13:46:51.334Z,60.25
2022-12-01T13:49:53.976Z,59.50
2022-12-01T13:53:12.561Z,60.93
2022-12-01T13:56:17.939Z,61.06
2022-12-01T14:00:02.845Z,61.44
2022-12-01T14:03:17.637Z,62.84
2022-12-01T14:06:41.066Z,62.04
2022-12-01T14:09:44.239Z,64.45
2022-12-01T14:12:46.900Z,66.52
2022-12-01T14:15:57.299Z,68.20
2022-12-01T14:18:59.738Z,69.43
2022-12-01T14:22:04.448Z,70.27
2022-12-01T14:25:22.652Z,71.95
2022-12-01T14:29:10.889Z,73.18
2022-12-01T14:32:16.301Z,73.28
2022-12-01T14:35:18.906Z,74.25
2022-12-01T14:38:22.189Z,75.74
2022-12-01T14:41:30.771Z,75.31
2022-12-01T14:44:33.239Z,76.07
2022-12-01T14:47:42.645Z,75.68
2022-12-01T14:50:51.476Z,76.68
2022-12-01T14:53:55.047Z,76.94
2022-12-01T14:57:04.459Z,76.66
2022-12-01T15:00:19.656Z,76.85
2022-12-01T15:03:25.386Z,76.36
2022-12-01T15:06:31.751Z,76.52
2022-12-01T15:09:35.151Z,77.65
2022-12-01T15:12:38.063Z,77.91
2022-12-01T15:15:53.735Z,77.40
2022-12-01T15:18:58.611Z,77.88
2022-12-01T15:22:05.753Z,77.96
2022-12-01T15:25:13.852Z,78.39
2022-12-01T15:28:19.706Z,78.67
2022-12-01T15:31:22.143Z,78.36
2022-12-01T15:34:39.414Z,78.55
2022-12-01T15:37:45.269Z,78.30
2022-12-01T15:44:20.849Z,78.27
2022-12-01T15:47:37.807Z,78.16
2022-12-01T15:50:46.138Z,78.90
2022-12-01T15:53:54.749Z,79.07
2022-12-01T15:56:59.100Z,79.06
2022-12-01T16:00:01.645Z,78.78
2022-12-01T16:03:04.311Z,79.18
2022-12-01T16:06:11.697Z,79.63
2022-12-01T16:09:26.253Z,79.42
2022-12-01T16:12:33.045Z,79.81
2022-12-01T16:15:42.862Z,80.52
2022-12-01T16:18:53.230Z,80.83
2022-12-01T16:22:04.730Z,81.25
2022-12-01T16:25:38.382Z,79.17
2022-12-01T16:28:40.823Z,79.37
2022-12-01T16:32:05.130Z,79.72
2022-12-01T16:35:07.625Z,78.76
2022-12-01T16:38:25.104Z,78.14
2022-12-01T16:41:37.695Z,79.42
2022-12-01T16:44:41.867Z,79.82
2022-12-01T16:47:46.191Z,79.89
2022-12-01T16:50:49.891Z,79.97
2022-12-01T16:53:52.725Z,80.46
2022-12-01T16:56:55.381Z,80.02
2022-12-01T16:59:57.913Z,80.97
2022-12-01T17:03:00.836Z,80.39
2022-12-01T17:06:04.068Z,80.66
2022-12-01T17:09:06.510Z,81.39
2022-12-01T17:12:08.959Z,81.75
2022-12-01T17:15:12.099Z,81.25
2022-12-01T17:18:16.435Z,81.75
2022-12-01T17:21:18.950Z,81.67
2022-12-01T17:24:21.413Z,81.16
2022-12-01T17:27:25.215Z,81.64
2022-12-01T17:30:27.853Z,82.43
2022-12-01T17:33:30.621Z,82.57
2022-12-01T17:36:33.146Z,82.48
2022-12-01T17:39:37.076Z,82.41
2022-12-01T17:42:39.669Z,83.40
2022-12-01T17:45:43.043Z,83.58
2022-12-01T17:48:46.494Z,84.04
2022-12-01T17:51:49.197Z,83.92
2022-12-01T17:54:51.923Z,84.54
2022-12-01T17:57:54.842Z,83.94
2022-12-01T18:00:57.253Z,84.38
2022-12-01T18:03:59.738Z,84.39
2022-12-01T18:07:02.155Z,84.34
2022-12-01T18:10:05.269Z,83.07
2022-12-01T18:13:07.983Z,83.46
2022-12-01T18:16:19.661Z,83.94
2022-12-01T18:19:22.233Z,84.44
2022-12-01T18:22:24.610Z,84.20
2022-12-01T18:25:27.308Z,83.95
2022-12-01T18:28:29.925Z,83.98
2022-12-01T18:31:33.203Z,83.88
2022-12-01T18:34:35.765Z,83.59
2022-12-01T18:37:40.380Z,83.84
2022-12-01T18:40:43.230Z,84.60
2022-12-01T18:43:45.881Z,84.58
2022-12-01T18:46:48.624Z,85.35
2022-12-01T18:49:51.364Z,86.33
2022-12-01T18:52:53.788Z,86.23
2022-12-01T18:55:57.026Z,85.58
2022-12-01T18:59:01.951Z,86.32
2022-12-01T19:02:04.764Z,87.25
2022-12-01T19:05:07.697Z,87.48
2022-12-01T19:08:10.588Z,86.89
2022-12-01T19:11:13.753Z,87.25
2022-12-01T19:14:18.167Z,87.36
2022-12-01T19:17:21.875Z,86.63
2022-12-01T19:20:24.602Z,87.85
2022-12-01T19:23:27.674Z,87.00
2022-12-01T19:26:30.377Z,85.61
2022-12-01T19:29:33.081Z,85.45
2022-12-01T19:32:36.485Z,85.22
2022-12-01T19:35:39.104Z,84.47
2022-12-01T19:38:41.892Z,84.87
2022-12-01T19:41:44.688Z,85.19
2022-12-01T19:44:47.639Z,86.63
2022-12-01T19:47:51.575Z,86.29
2022-12-01T19:50:54.405Z,86.43
2022-12-01T19:53:57.534Z,86.32
2022-12-01T19:57:00.005Z,85.62
2022-12-01T20:00:02.952Z,85.20
2022-12-01T20:03:14.660Z,84.85
2022-12-01T20:06:22.514Z,84.35
2022-12-01T20:09:25.804Z,84.52
2022-12-01T20:12:28.607Z,84.58
2022-12-01T20:15:32.780Z,84.83
2022-12-01T20:18:36.299Z,84.03
2022-12-01T20:21:42.534Z,84.05
2022-12-01T20:24:45.363Z,84.00
2022-12-01T20:27:47.757Z,83.78
2022-12-01T20:30:50.260Z,84.54
2022-12-01T20:33:56.189Z,84.27
2022-12-01T20:36:59.267Z,84.21
2022-12-01T20:40:02.084Z,84.71
2022-12-01T20:43:04.924Z,84.65
2022-12-01T20:46:07.836Z,84.91
2022-12-01T20:49:11.241Z,83.94
2022-12-01T20:52:13.947Z,83.85
2022-12-01T20:55:16.857Z,83.62
2022-12-01T20:58:19.657Z,83.06
2022-12-01T21:01:22.795Z,83.64
2022-12-01T21:04:25.399Z,83.66
2022-12-01T21:07:27.865Z,82.94
2022-12-01T21:10:30.348Z,83.18
2022-12-01T21:13:39.552Z,83.12
2022-12-01T21:16:48.117Z,83.91
2022-12-01T21:20:07.082Z,83.55
2022-12-01T21:23:15.072Z,83.93
2022-12-01T21:26:18.991Z,83.75
2022-12-01T21:29:27.867Z,85.07
2022-12-01T21:32:32.245Z,85.20
2022-12-01T21:35:34.758Z,86.03
2022-12-01T21:38:37.455Z,86.64
2022-12-01T21:41:40.784Z,86.09
2022-12-01T21:44:43.356Z,85.60
2022-12-01T21:47:45.805Z,85.23
2022-12-01T21:50:53.791Z,85.07
2022-12-01T21:53:56.759Z,84.73
2022-12-01T21:56:59.199Z,84.04
2022-12-01T22:00:33.699Z,83.10
2022-12-01T22:03:40.089Z,83.51
2022-12-01T22:06:45.435Z,84.35
2022-12-01T22:09:54.614Z,84.11
2022-12-01T22:12:57.032Z,84.21
2022-12-01T22:15:59.577Z,83.55
2022-12-01T22:19:20.240Z,84.06
2022-12-01T22:22:25.159Z,84.75
2022-12-01T22:25:28.458Z,85.45
2022-12-01T22:28:31.219Z,85.30
2022-12-01T22:31:34.202Z,85.57
2022-12-01T22:34:36.822Z,85.82
2022-12-01T22:37:50.181Z,85.09
2022-12-01T22:41:14.462Z,85.45
2022-12-01T22:44:17.280Z,85.82
2022-12-01T22:47:19.734Z,85.50
2022-12-01T22:50:30.568Z,85.76
2022-12-01T22:53:32.915Z,85.13
2022-12-01T22:56:50.065Z,85.92
2022-12-01T22:59:53.221Z,84.94
2022-12-01T23:02:55.907Z,86.08
2022-12-01T23:05:58.548Z,86.61
2022-12-01T23:09:01.820Z,86.90
2022-12-01T23:12:10.104Z,87.73
2022-12-01T23:15:35.361Z,87.11
2022-12-01T23:18:37.906Z,87.31
2022-12-01T23:21:40.768Z,87.00
2022-12-01T23:24:43.673Z,86.84
2022-12-01T23:27:48.733Z,86.82
2022-12-01T23:30:54.459Z,86.38
2022-12-01T23:33:56.913Z,87.46
2022-12-01T23:36:59.360Z,86.80
2022-12-01T23:40:03.093Z,87.49
2022-12-01T23:43:17.826Z,87.67
2022-12-01T23:46:25.329Z,87.61
2022-12-01T23:49:30.221Z,87.20
2022-12-01T23:52:35.482Z,87.05
2022-12-01T23:55:37.898Z,87.23
2022-12-01T23:58:40.781Z,87.06
